sensor_id;sensor_type;location;lat;lon;timestamp;temperature;humidity
23475;DHT22;11910;52.086;21.066;2023-11-22T00:01:11;1.70;99.90
23475;DHT22;11910;52.086;21.066;2023-11-22T00:03:37;1.70;99.90
23475;DHT22;11910;52.086;21.066;2023-11-22T00:06:03;1.70;99.90
23475;DHT22;11910;52.086;21.066;2023-11-22T00:08:29;1.70;99.90
23475;DHT22;11910;52.086;21.066;2023-11-22T00:10:55;1.70;99.90
23475;DHT22;11910;52.086;21.066;2023-11-22T00:13:21;1.70;99.90
23475;DHT22;11910;52.086;21.066;2023-11-22T00:15:47;1.70;99.90
23475;DHT22;11910;52.086;21.066;2023-11-22T00:18:12;1.70;99.90
23475;DHT22;11910;52.086;21.066;2023-11-22T00:20:38;1.70;99.90
23475;DHT22;11910;52.086;21.066;2023-11-22T00:23:03;1.70;99.90
23475;DHT22;11910;52.086;21.066;2023-11-22T00:25:29;1.80;99.90
23475;DHT22;11910;52.086;21.066;2023-11-22T00:27:55;1.80;99.90
23475;DHT22;11910;52.086;21.066;2023-11-22T00:30:21;1.80;99.90
23475;DHT22;11910;52.086;21.066;2023-11-22T00:32:46;1.80;99.90
23475;DHT22;11910;52.086;21.066;2023-11-22T00:35:12;1.70;99.90
23475;DHT22;11910;52.086;21.066;2023-11-22T00:37:37;1.80;99.90
23475;DHT22;11910;52.086;21.066;2023-11-22T00:40:03;1.70;99.90
23475;DHT22;11910;52.086;21.066;2023-11-22T00:42:38;1.80;99.90
23475;DHT22;11910;52.086;21.066;2023-11-22T00:45:06;1.80;99.90
23475;DHT22;11910;52.086;21.066;2023-11-22T00:47:34;1.80;99.90
23475;DHT22;11910;52.086;21.066;2023-11-22T00:50:00;1.70;99.90
23475;DHT22;11910;52.086;21.066;2023-11-22T00:52:27;1.70;99.90
23475;DHT22;11910;52.086;21.066;2023-11-22T00:54:53;1.70;99.90
23475;DHT22;11910;52.086;21.066;2023-11-22T00:57:18;1.70;99.90
23475;DHT22;11910;52.086;21.066;2023-11-22T00:59:44;1.70;99.90
23475;DHT22;11910;52.086;21.066;2023-11-22T01:02:09;1.70;99.90
23475;DHT22;11910;52.086;21.066;2023-11-22T01:04:35;1.70;99.90
23475;DHT22;11910;52.086;21.066;2023-11-22T01:07:03;1.70;99.90
23475;DHT22;11910;52.086;21.066;2023-11-22T01:09:35;1.70;99.90
23475;DHT22;11910;52.086;21.066;2023-11-22T01:12:01;1.70;99.90
23475;DHT22;11910;52.086;21.066;2023-11-22T01:14:27;1.60;99.90
23475;DHT22;11910;52.086;21.066;2023-11-22T01:16:53;1.60;99.90
23475;DHT22;11910;52.086;21.066;2023-11-22T01:19:22;1.70;99.90
23475;DHT22;11910;52.086;21.066;2023-11-22T01:21:47;1.70;99.90
23475;DHT22;11910;52.086;21.066;2023-11-22T01:24:13;1.70;99.90
23475;DHT22;11910;52.086;21.066;2023-11-22T01:26:38;1.70;99.90
23475;DHT22;11910;52.086;21.066;2023-11-22T01:29:05;1.70;99.90
23475;DHT22;11910;52.086;21.066;2023-11-22T01:31:30;1.60;99.90
23475;DHT22;11910;52.086;21.066;2023-11-22T01:33:58;1.70;99.90
23475;DHT22;11910;52.086;21.066;2023-11-22T01:36:24;1.70;99.90
23475;DHT22;11910;52.086;21.066;2023-11-22T01:38:51;1.60;99.90
23475;DHT22;11910;52.086;21.066;2023-11-22T01:41:17;1.50;99.90
23475;DHT22;11910;52.086;21.066;2023-11-22T01:43:43;1.40;99.90
23475;DHT22;11910;52.086;21.066;2023-11-22T01:46:10;1.50;99.90
23475;DHT22;11910;52.086;21.066;2023-11-22T01:48:42;1.40;99.90
23475;DHT22;11910;52.086;21.066;2023-11-22T01:51:07;1.40;99.90
23475;DHT22;11910;52.086;21.066;2023-11-22T01:53:34;1.50;99.90
23475;DHT22;11910;52.086;21.066;2023-11-22T01:56:00;1.50;99.90
23475;DHT22;11910;52.086;21.066;2023-11-22T01:58:26;1.40;99.90
23475;DHT22;11910;52.086;21.066;2023-11-22T02:00:53;1.40;99.90
23475;DHT22;11910;52.086;21.066;2023-11-22T02:03:18;1.50;99.90
23475;DHT22;11910;52.086;21.066;2023-11-22T02:05:45;1.40;99.90
23475;DHT22;11910;52.086;21.066;2023-11-22T02:08:11;1.40;99.90
23475;DHT22;11910;52.086;21.066;2023-11-22T02:10:37;1.40;99.90
23475;DHT22;11910;52.086;21.066;2023-11-22T02:13:03;1.40;99.90
23475;DHT22;11910;52.086;21.066;2023-11-22T02:15:35;1.30;99.90
23475;DHT22;11910;52.086;21.066;2023-11-22T02:18:02;1.30;99.90
23475;DHT22;11910;52.086;21.066;2023-11-22T02:20:28;1.30;99.90
23475;DHT22;11910;52.086;21.066;2023-11-22T02:22:54;1.30;99.90
23475;DHT22;11910;52.086;21.066;2023-11-22T02:25:20;1.30;99.90
23475;DHT22;11910;52.086;21.066;2023-11-22T02:27:46;1.30;99.90
23475;DHT22;11910;52.086;21.066;2023-11-22T02:30:12;1.30;99.90
23475;DHT22;11910;52.086;21.066;2023-11-22T02:32:37;1.30;99.90
23475;DHT22;11910;52.086;21.066;2023-11-22T02:35:05;1.20;99.90
23475;DHT22;11910;52.086;21.066;2023-11-22T02:37:33;1.30;99.90
23475;DHT22;11910;52.086;21.066;2023-11-22T02:40:16;1.20;99.90
23475;DHT22;11910;52.086;21.066;2023-11-22T02:42:43;1.20;99.90
23475;DHT22;11910;52.086;21.066;2023-11-22T02:45:09;1.30;99.90
23475;DHT22;11910;52.086;21.066;2023-11-22T02:47:35;1.30;99.90
23475;DHT22;11910;52.086;21.066;2023-11-22T02:50:02;1.30;99.90
23475;DHT22;11910;52.086;21.066;2023-11-22T02:52:28;1.30;99.90
23475;DHT22;11910;52.086;21.066;2023-11-22T02:54:53;1.30;99.90
23475;DHT22;11910;52.086;21.066;2023-11-22T02:57:19;1.20;99.90
23475;DHT22;11910;52.086;21.066;2023-11-22T02:59:45;1.20;99.90
23475;DHT22;11910;52.086;21.066;2023-11-22T03:02:11;1.20;99.90
23475;DHT22;11910;52.086;21.066;2023-11-22T03:04:37;1.20;99.90
23475;DHT22;11910;52.086;21.066;2023-11-22T03:07:03;1.10;99.90
23475;DHT22;11910;52.086;21.066;2023-11-22T03:09:28;1.10;99.90
23475;DHT22;11910;52.086;21.066;2023-11-22T03:11:55;1.10;99.90
23475;DHT22;11910;52.086;21.066;2023-11-22T03:14:21;1.10;99.90
23475;DHT22;11910;52.086;21.066;2023-11-22T03:16:47;1.00;99.90
23475;DHT22;11910;52.086;21.066;2023-11-22T03:19:13;1.00;99.90
23475;DHT22;11910;52.086;21.066;2023-11-22T03:21:40;1.10;99.90
23475;DHT22;11910;52.086;21.066;2023-11-22T03:24:10;1.10;99.90
23475;DHT22;11910;52.086;21.066;2023-11-22T03:26:35;1.10;99.90
23475;DHT22;11910;52.086;21.066;2023-11-22T03:29:01;1.10;99.90
23475;DHT22;11910;52.086;21.066;2023-11-22T03:31:29;1.10;99.90
23475;DHT22;11910;52.086;21.066;2023-11-22T03:33:57;1.10;99.90
23475;DHT22;11910;52.086;21.066;2023-11-22T03:36:22;1.10;99.90
23475;DHT22;11910;52.086;21.066;2023-11-22T03:38:49;1.10;99.90
23475;DHT22;11910;52.086;21.066;2023-11-22T03:41:15;1.10;99.90
23475;DHT22;11910;52.086;21.066;2023-11-22T03:43:40;1.10;99.90
23475;DHT22;11910;52.086;21.066;2023-11-22T03:46:06;1.00;99.90
23475;DHT22;11910;52.086;21.066;2023-11-22T03:48:32;1.00;99.90
23475;DHT22;11910;52.086;21.066;2023-11-22T03:50:57;1.00;99.90
23475;DHT22;11910;52.086;21.066;2023-11-22T03:53:23;1.00;99.90
23475;DHT22;11910;52.086;21.066;2023-11-22T03:55:49;0.90;99.90
23475;DHT22;11910;52.086;21.066;2023-11-22T03:58:15;0.90;99.90
23475;DHT22;11910;52.086;21.066;2023-11-22T04:00:41;0.90;99.90
23475;DHT22;11910;52.086;21.066;2023-11-22T04:03:06;0.80;99.90
23475;DHT22;11910;52.086;21.066;2023-11-22T04:05:32;0.80;99.90
23475;DHT22;11910;52.086;21.066;2023-11-22T04:07:58;0.70;99.90
23475;DHT22;11910;52.086;21.066;2023-11-22T04:10:23;0.70;99.90
23475;DHT22;11910;52.086;21.066;2023-11-22T04:12:49;0.60;99.90
23475;DHT22;11910;52.086;21.066;2023-11-22T04:15:15;0.60;99.90
23475;DHT22;11910;52.086;21.066;2023-11-22T04:17:41;0.60;99.90
23475;DHT22;11910;52.086;21.066;2023-11-22T04:20:08;0.60;99.90
23475;DHT22;11910;52.086;21.066;2023-11-22T04:22:41;0.50;99.90
23475;DHT22;11910;52.086;21.066;2023-11-22T04:25:07;0.40;99.90
23475;DHT22;11910;52.086;21.066;2023-11-22T04:27:34;0.40;99.90
23475;DHT22;11910;52.086;21.066;2023-11-22T04:30:00;0.30;99.90
23475;DHT22;11910;52.086;21.066;2023-11-22T04:32:25;0.20;99.90
23475;DHT22;11910;52.086;21.066;2023-11-22T04:34:51;0.10;99.90
23475;DHT22;11910;52.086;21.066;2023-11-22T04:37:17;0.10;99.90
23475;DHT22;11910;52.086;21.066;2023-11-22T04:39:42;0.00;99.90
23475;DHT22;11910;52.086;21.066;2023-11-22T04:42:08;-0.10;99.90
23475;DHT22;11910;52.086;21.066;2023-11-22T04:44:33;-0.10;99.90
23475;DHT22;11910;52.086;21.066;2023-11-22T04:46:59;-0.20;99.90
23475;DHT22;11910;52.086;21.066;2023-11-22T04:49:25;-0.30;99.90
23475;DHT22;11910;52.086;21.066;2023-11-22T04:51:51;-0.30;99.90
23475;DHT22;11910;52.086;21.066;2023-11-22T04:54:16;-0.40;99.90
23475;DHT22;11910;52.086;21.066;2023-11-22T04:56:42;-0.40;99.90
23475;DHT22;11910;52.086;21.066;2023-11-22T04:59:08;-0.50;99.90
23475;DHT22;11910;52.086;21.066;2023-11-22T05:01:34;-0.40;99.90
23475;DHT22;11910;52.086;21.066;2023-11-22T05:04:00;-0.50;99.90
23475;DHT22;11910;52.086;21.066;2023-11-22T05:06:26;-0.50;99.90
23475;DHT22;11910;52.086;21.066;2023-11-22T05:08:52;-0.50;99.90
23475;DHT22;11910;52.086;21.066;2023-11-22T05:11:19;-0.60;99.90
23475;DHT22;11910;52.086;21.066;2023-11-22T05:13:44;-0.60;99.90
23475;DHT22;11910;52.086;21.066;2023-11-22T05:16:10;-0.70;99.90
23475;DHT22;11910;52.086;21.066;2023-11-22T05:18:36;-0.60;99.90
23475;DHT22;11910;52.086;21.066;2023-11-22T05:21:02;-0.60;99.90
23475;DHT22;11910;52.086;21.066;2023-11-22T05:23:29;-0.70;99.90
23475;DHT22;11910;52.086;21.066;2023-11-22T05:25:55;-0.70;99.90
23475;DHT22;11910;52.086;21.066;2023-11-22T05:28:22;-0.70;99.90
23475;DHT22;11910;52.086;21.066;2023-11-22T05:30:48;-0.80;99.90
23475;DHT22;11910;52.086;21.066;2023-11-22T05:33:13;-0.90;99.90
23475;DHT22;11910;52.086;21.066;2023-11-22T05:35:39;-1.00;99.90
23475;DHT22;11910;52.086;21.066;2023-11-22T05:38:06;-1.00;99.90
23475;DHT22;11910;52.086;21.066;2023-11-22T05:40:32;-1.00;99.90
23475;DHT22;11910;52.086;21.066;2023-11-22T05:42:58;-1.00;99.90
23475;DHT22;11910;52.086;21.066;2023-11-22T05:45:24;-1.00;99.90
23475;DHT22;11910;52.086;21.066;2023-11-22T05:47:50;-1.10;99.90
23475;DHT22;11910;52.086;21.066;2023-11-22T05:50:16;-1.20;99.90
23475;DHT22;11910;52.086;21.066;2023-11-22T05:52:42;-1.10;99.90
23475;DHT22;11910;52.086;21.066;2023-11-22T05:55:09;-1.20;99.90
23475;DHT22;11910;52.086;21.066;2023-11-22T05:57:35;-1.40;99.90
23475;DHT22;11910;52.086;21.066;2023-11-22T06:00:01;-1.30;99.90
23475;DHT22;11910;52.086;21.066;2023-11-22T06:02:27;-1.30;99.90
23475;DHT22;11910;52.086;21.066;2023-11-22T06:04:53;-1.40;99.90
23475;DHT22;11910;52.086;21.066;2023-11-22T06:07:19;-1.30;99.90
23475;DHT22;11910;52.086;21.066;2023-11-22T06:09:44;-1.40;99.90
23475;DHT22;11910;52.086;21.066;2023-11-22T06:12:10;-1.40;99.90
23475;DHT22;11910;52.086;21.066;2023-11-22T06:14:35;-1.40;99.90
23475;DHT22;11910;52.086;21.066;2023-11-22T06:17:01;-1.50;99.90
23475;DHT22;11910;52.086;21.066;2023-11-22T06:19:28;-1.60;99.90
23475;DHT22;11910;52.086;21.066;2023-11-22T06:21:54;-1.60;99.90
23475;DHT22;11910;52.086;21.066;2023-11-22T06:24:19;-1.60;99.90
23475;DHT22;11910;52.086;21.066;2023-11-22T06:26:45;-1.60;99.90
23475;DHT22;11910;52.086;21.066;2023-11-22T06:29:15;-1.60;99.90
23475;DHT22;11910;52.086;21.066;2023-11-22T06:31:41;-1.60;99.90
23475;DHT22;11910;52.086;21.066;2023-11-22T06:34:07;-1.70;99.90
23475;DHT22;11910;52.086;21.066;2023-11-22T06:36:32;-1.70;99.90
23475;DHT22;11910;52.086;21.066;2023-11-22T06:38:58;-1.70;99.90
23475;DHT22;11910;52.086;21.066;2023-11-22T06:41:24;-1.60;99.90
23475;DHT22;11910;52.086;21.066;2023-11-22T06:43:49;-1.60;99.90
23475;DHT22;11910;52.086;21.066;2023-11-22T06:46:15;-1.60;99.90
23475;DHT22;11910;52.086;21.066;2023-11-22T06:48:43;-1.50;99.90
23475;DHT22;11910;52.086;21.066;2023-11-22T06:51:09;-1.50;99.90
23475;DHT22;11910;52.086;21.066;2023-11-22T06:53:35;-1.40;99.90
23475;DHT22;11910;52.086;21.066;2023-11-22T06:56:01;-1.40;99.90
23475;DHT22;11910;52.086;21.066;2023-11-22T06:58:27;-1.30;99.90
23475;DHT22;11910;52.086;21.066;2023-11-22T07:00:52;-1.20;99.90
23475;DHT22;11910;52.086;21.066;2023-11-22T07:03:18;-1.20;99.90
23475;DHT22;11910;52.086;21.066;2023-11-22T07:05:44;-1.10;99.90
23475;DHT22;11910;52.086;21.066;2023-11-22T07:08:09;-1.10;99.90
23475;DHT22;11910;52.086;21.066;2023-11-22T07:10:36;-1.10;99.90
23475;DHT22;11910;52.086;21.066;2023-11-22T07:13:02;-1.10;99.90
23475;DHT22;11910;52.086;21.066;2023-11-22T07:15:28;-1.00;99.90
23475;DHT22;11910;52.086;21.066;2023-11-22T07:17:54;-1.00;99.90
23475;DHT22;11910;52.086;21.066;2023-11-22T07:20:20;-0.90;99.90
23475;DHT22;11910;52.086;21.066;2023-11-22T07:22:46;-0.90;99.90
23475;DHT22;11910;52.086;21.066;2023-11-22T07:25:12;-0.80;99.90
23475;DHT22;11910;52.086;21.066;2023-11-22T07:27:47;-0.80;99.90
23475;DHT22;11910;52.086;21.066;2023-11-22T07:30:13;-0.80;99.90
23475;DHT22;11910;52.086;21.066;2023-11-22T07:32:42;-0.70;99.90
23475;DHT22;11910;52.086;21.066;2023-11-22T07:35:08;-0.70;99.90
23475;DHT22;11910;52.086;21.066;2023-11-22T07:37:40;-0.60;99.90
23475;DHT22;11910;52.086;21.066;2023-11-22T07:40:08;-0.60;99.90
23475;DHT22;11910;52.086;21.066;2023-11-22T07:42:35;-0.60;99.90
23475;DHT22;11910;52.086;21.066;2023-11-22T07:45:01;-0.50;99.90
23475;DHT22;11910;52.086;21.066;2023-11-22T07:47:27;-0.50;99.90
23475;DHT22;11910;52.086;21.066;2023-11-22T07:49:54;-0.40;99.90
23475;DHT22;11910;52.086;21.066;2023-11-22T07:52:25;-0.30;99.90
23475;DHT22;11910;52.086;21.066;2023-11-22T07:54:58;-0.30;99.90
23475;DHT22;11910;52.086;21.066;2023-11-22T07:57:24;-0.30;99.90
23475;DHT22;11910;52.086;21.066;2023-11-22T07:59:50;-0.30;99.90
23475;DHT22;11910;52.086;21.066;2023-11-22T08:02:20;-0.20;99.90
23475;DHT22;11910;52.086;21.066;2023-11-22T08:04:46;-0.10;99.90
23475;DHT22;11910;52.086;21.066;2023-11-22T08:07:13;-0.10;99.90
23475;DHT22;11910;52.086;21.066;2023-11-22T08:09:43;0.00;99.90
23475;DHT22;11910;52.086;21.066;2023-11-22T08:12:11;0.10;99.90
23475;DHT22;11910;52.086;21.066;2023-11-22T08:14:38;0.10;99.90
23475;DHT22;11910;52.086;21.066;2023-11-22T08:17:05;0.20;99.90
23475;DHT22;11910;52.086;21.066;2023-11-22T08:19:31;0.20;99.90
23475;DHT22;11910;52.086;21.066;2023-11-22T08:21:57;0.30;99.90
23475;DHT22;11910;52.086;21.066;2023-11-22T08:24:23;0.30;99.90
23475;DHT22;11910;52.086;21.066;2023-11-22T08:26:49;0.40;99.90
23475;DHT22;11910;52.086;21.066;2023-11-22T08:29:14;0.40;99.90
23475;DHT22;11910;52.086;21.066;2023-11-22T08:31:41;0.50;99.90
23475;DHT22;11910;52.086;21.066;2023-11-22T08:34:07;0.60;99.90
23475;DHT22;11910;52.086;21.066;2023-11-22T08:36:35;0.70;99.90
23475;DHT22;11910;52.086;21.066;2023-11-22T08:39:02;0.80;99.90
23475;DHT22;11910;52.086;21.066;2023-11-22T08:41:29;2.20;99.90
23475;DHT22;11910;52.086;21.066;2023-11-22T08:43:56;3.90;99.90
23475;DHT22;11910;52.086;21.066;2023-11-22T08:46:22;5.00;99.90
23475;DHT22;11910;52.086;21.066;2023-11-22T08:48:49;6.60;97.70
23475;DHT22;11910;52.086;21.066;2023-11-22T08:51:14;7.10;96.00
23475;DHT22;11910;52.086;21.066;2023-11-22T08:53:41;6.60;94.20
23475;DHT22;11910;52.086;21.066;2023-11-22T08:56:09;4.70;96.10
23475;DHT22;11910;52.086;21.066;2023-11-22T08:58:39;3.50;98.00
23475;DHT22;11910;52.086;21.066;2023-11-22T09:01:06;2.90;98.90
23475;DHT22;11910;52.086;21.066;2023-11-22T09:03:32;2.50;99.60
23475;DHT22;11910;52.086;21.066;2023-11-22T09:05:58;2.10;99.90
23475;DHT22;11910;52.086;21.066;2023-11-22T09:08:23;1.90;99.90
23475;DHT22;11910;52.086;21.066;2023-11-22T09:10:49;1.90;99.90
23475;DHT22;11910;52.086;21.066;2023-11-22T09:13:16;1.80;99.90
23475;DHT22;11910;52.086;21.066;2023-11-22T09:15:42;1.80;99.90
23475;DHT22;11910;52.086;21.066;2023-11-22T09:18:10;1.80;99.90
23475;DHT22;11910;52.086;21.066;2023-11-22T09:20:37;1.80;99.90
23475;DHT22;11910;52.086;21.066;2023-11-22T09:23:02;1.80;99.90
23475;DHT22;11910;52.086;21.066;2023-11-22T09:25:30;1.80;99.90
23475;DHT22;11910;52.086;21.066;2023-11-22T09:27:57;1.70;99.90
23475;DHT22;11910;52.086;21.066;2023-11-22T09:30:31;1.70;99.90
23475;DHT22;11910;52.086;21.066;2023-11-22T09:33:14;1.80;99.90
23475;DHT22;11910;52.086;21.066;2023-11-22T09:35:43;1.80;99.90
23475;DHT22;11910;52.086;21.066;2023-11-22T09:38:10;1.80;99.90
23475;DHT22;11910;52.086;21.066;2023-11-22T09:40:43;1.70;99.90
23475;DHT22;11910;52.086;21.066;2023-11-22T09:43:10;1.80;99.90
23475;DHT22;11910;52.086;21.066;2023-11-22T09:45:36;1.80;99.90
23475;DHT22;11910;52.086;21.066;2023-11-22T09:48:13;1.80;99.90
23475;DHT22;11910;52.086;21.066;2023-11-22T09:50:50;1.90;99.90
23475;DHT22;11910;52.086;21.066;2023-11-22T09:53:33;1.90;99.90
23475;DHT22;11910;52.086;21.066;2023-11-22T09:56:01;1.90;99.90
23475;DHT22;11910;52.086;21.066;2023-11-22T09:58:33;1.90;99.90
23475;DHT22;11910;52.086;21.066;2023-11-22T10:01:02;1.80;99.90
23475;DHT22;11910;52.086;21.066;2023-11-22T10:03:29;1.90;99.90
23475;DHT22;11910;52.086;21.066;2023-11-22T10:05:56;1.90;99.90
23475;DHT22;11910;52.086;21.066;2023-11-22T10:08:25;1.90;99.90
23475;DHT22;11910;52.086;21.066;2023-11-22T10:10:51;1.90;99.90
23475;DHT22;11910;52.086;21.066;2023-11-22T10:13:17;1.90;99.90
23475;DHT22;11910;52.086;21.066;2023-11-22T10:15:49;2.00;99.90
23475;DHT22;11910;52.086;21.066;2023-11-22T10:18:15;2.10;99.90
23475;DHT22;11910;52.086;21.066;2023-11-22T10:20:41;2.20;99.90
23475;DHT22;11910;52.086;21.066;2023-11-22T10:23:11;2.20;99.90
23475;DHT22;11910;52.086;21.066;2023-11-22T10:25:49;2.20;99.90
23475;DHT22;11910;52.086;21.066;2023-11-22T10:28:17;2.30;99.90
23475;DHT22;11910;52.086;21.066;2023-11-22T10:30:45;2.40;99.90
23475;DHT22;11910;52.086;21.066;2023-11-22T10:33:10;2.40;99.90
23475;DHT22;11910;52.086;21.066;2023-11-22T10:35:48;2.40;99.90
23475;DHT22;11910;52.086;21.066;2023-11-22T10:38:18;2.50;98.80
23475;DHT22;11910;52.086;21.066;2023-11-22T10:40:45;2.50;99.60
23475;DHT22;11910;52.086;21.066;2023-11-22T10:43:15;2.40;99.40
23475;DHT22;11910;52.086;21.066;2023-11-22T10:45:42;2.40;99.20
23475;DHT22;11910;52.086;21.066;2023-11-22T10:48:13;2.70;99.10
23475;DHT22;11910;52.086;21.066;2023-11-22T10:50:41;2.80;99.20
23475;DHT22;11910;52.086;21.066;2023-11-22T10:53:11;2.80;99.10
23475;DHT22;11910;52.086;21.066;2023-11-22T10:55:41;3.10;97.90
23475;DHT22;11910;52.086;21.066;2023-11-22T10:58:09;2.80;97.80
23475;DHT22;11910;52.086;21.066;2023-11-22T11:00:40;2.70;98.80
23475;DHT22;11910;52.086;21.066;2023-11-22T11:03:18;2.80;99.90
23475;DHT22;11910;52.086;21.066;2023-11-22T11:05:52;2.80;98.90
23475;DHT22;11910;52.086;21.066;2023-11-22T11:08:20;2.80;98.70
23475;DHT22;11910;52.086;21.066;2023-11-22T11:10:47;2.90;99.90
23475;DHT22;11910;52.086;21.066;2023-11-22T11:13:14;3.00;99.90
23475;DHT22;11910;52.086;21.066;2023-11-22T11:15:42;3.20;98.80
23475;DHT22;11910;52.086;21.066;2023-11-22T11:18:10;3.40;99.20
23475;DHT22;11910;52.086;21.066;2023-11-22T11:20:49;3.40;98.40
23475;DHT22;11910;52.086;21.066;2023-11-22T11:23:23;3.50;98.70
23475;DHT22;11910;52.086;21.066;2023-11-22T11:25:52;4.20;98.70
23475;DHT22;11910;52.086;21.066;2023-11-22T11:28:19;9.60;95.30
23475;DHT22;11910;52.086;21.066;2023-11-22T11:30:48;13.50;85.70
23475;DHT22;11910;52.086;21.066;2023-11-22T11:33:21;15.80;69.50
23475;DHT22;11910;52.086;21.066;2023-11-22T11:35:51;17.40;58.10
23475;DHT22;11910;52.086;21.066;2023-11-22T11:38:21;18.20;55.40
23475;DHT22;11910;52.086;21.066;2023-11-22T11:40:52;19.10;52.90
23475;DHT22;11910;52.086;21.066;2023-11-22T11:43:43;20.40;50.50
23475;DHT22;11910;52.086;21.066;2023-11-22T11:46:11;21.00;46.90
23475;DHT22;11910;52.086;21.066;2023-11-22T11:48:37;21.50;46.60
23475;DHT22;11910;52.086;21.066;2023-11-22T11:51:03;22.00;46.10
23475;DHT22;11910;52.086;21.066;2023-11-22T11:53:29;22.20;44.30
23475;DHT22;11910;52.086;21.066;2023-11-22T11:55:57;22.20;43.10
23475;DHT22;11910;52.086;21.066;2023-11-22T11:58:23;22.50;43.40
23475;DHT22;11910;52.086;21.066;2023-11-22T12:00:51;22.50;42.20
23475;DHT22;11910;52.086;21.066;2023-11-22T12:03:18;22.00;39.60
23475;DHT22;11910;52.086;21.066;2023-11-22T12:05:47;21.40;40.00
23475;DHT22;11910;52.086;21.066;2023-11-22T12:08:13;18.00;42.30
23475;DHT22;11910;52.086;21.066;2023-11-22T12:10:43;14.90;47.80
23475;DHT22;11910;52.086;21.066;2023-11-22T12:13:08;12.20;50.40
23475;DHT22;11910;52.086;21.066;2023-11-22T12:15:35;10.30;52.10
23475;DHT22;11910;52.086;21.066;2023-11-22T12:18:01;8.80;56.20
23475;DHT22;11910;52.086;21.066;2023-11-22T12:20:27;10.60;54.60
23475;DHT22;11910;52.086;21.066;2023-11-22T12:22:58;10.60;53.60
23475;DHT22;11910;52.086;21.066;2023-11-22T12:25:29;9.00;55.10
23475;DHT22;11910;52.086;21.066;2023-11-22T12:27:55;8.20;56.50
23475;DHT22;11910;52.086;21.066;2023-11-22T12:30:35;7.70;58.20
23475;DHT22;11910;52.086;21.066;2023-11-22T12:33:08;7.20;61.70
23475;DHT22;11910;52.086;21.066;2023-11-22T12:35:35;6.90;61.70
23475;DHT22;11910;52.086;21.066;2023-11-22T12:38:02;6.90;61.00
23475;DHT22;11910;52.086;21.066;2023-11-22T12:40:29;6.70;60.50
23475;DHT22;11910;52.086;21.066;2023-11-22T12:42:57;6.20;62.50
23475;DHT22;11910;52.086;21.066;2023-11-22T12:45:23;5.70;62.90
23475;DHT22;11910;52.086;21.066;2023-11-22T12:47:57;5.40;68.90
23475;DHT22;11910;52.086;21.066;2023-11-22T12:50:33;4.90;70.30
23475;DHT22;11910;52.086;21.066;2023-11-22T12:53:11;4.70;67.80
23475;DHT22;11910;52.086;21.066;2023-11-22T12:55:41;4.60;69.90
23475;DHT22;11910;52.086;21.066;2023-11-22T12:58:09;4.40;74.40
23475;DHT22;11910;52.086;21.066;2023-11-22T13:00:34;4.20;72.50
23475;DHT22;11910;52.086;21.066;2023-11-22T13:03:01;4.10;71.50
23475;DHT22;11910;52.086;21.066;2023-11-22T13:05:27;4.00;71.20
23475;DHT22;11910;52.086;21.066;2023-11-22T13:07:52;3.90;72.10
23475;DHT22;11910;52.086;21.066;2023-11-22T13:10:19;3.70;72.30
23475;DHT22;11910;52.086;21.066;2023-11-22T13:12:50;3.60;71.90
23475;DHT22;11910;52.086;21.066;2023-11-22T13:15:15;3.50;74.90
23475;DHT22;11910;52.086;21.066;2023-11-22T13:17:41;3.40;78.40
23475;DHT22;11910;52.086;21.066;2023-11-22T13:20:08;3.40;76.10
23475;DHT22;11910;52.086;21.066;2023-11-22T13:22:40;3.30;76.30
23475;DHT22;11910;52.086;21.066;2023-11-22T13:25:10;3.30;78.30
23475;DHT22;11910;52.086;21.066;2023-11-22T13:27:39;3.20;80.10
23475;DHT22;11910;52.086;21.066;2023-11-22T13:30:06;3.30;79.50
23475;DHT22;11910;52.086;21.066;2023-11-22T13:32:32;3.20;78.90
23475;DHT22;11910;52.086;21.066;2023-11-22T13:34:58;3.10;84.10
23475;DHT22;11910;52.086;21.066;2023-11-22T13:37:24;3.00;79.50
23475;DHT22;11910;52.086;21.066;2023-11-22T13:39:50;3.00;79.70
23475;DHT22;11910;52.086;21.066;2023-11-22T13:42:16;3.00;80.90
23475;DHT22;11910;52.086;21.066;2023-11-22T13:44:41;3.00;82.20
23475;DHT22;11910;52.086;21.066;2023-11-22T13:47:12;2.90;81.40
23475;DHT22;11910;52.086;21.066;2023-11-22T13:49:41;2.80;81.10
23475;DHT22;11910;52.086;21.066;2023-11-22T13:52:08;2.70;80.70
23475;DHT22;11910;52.086;21.066;2023-11-22T13:54:34;2.60;81.50
23475;DHT22;11910;52.086;21.066;2023-11-22T13:57:03;2.60;82.40
23475;DHT22;11910;52.086;21.066;2023-11-22T13:59:29;2.50;82.50
23475;DHT22;11910;52.086;21.066;2023-11-22T14:01:54;2.50;82.10
23475;DHT22;11910;52.086;21.066;2023-11-22T14:04:20;2.40;81.60
23475;DHT22;11910;52.086;21.066;2023-11-22T14:06:46;2.40;84.70
23475;DHT22;11910;52.086;21.066;2023-11-22T14:09:11;2.30;84.70
23475;DHT22;11910;52.086;21.066;2023-11-22T14:11:39;2.30;84.60
23475;DHT22;11910;52.086;21.066;2023-11-22T14:14:05;2.20;87.60
23475;DHT22;11910;52.086;21.066;2023-11-22T14:16:31;2.00;89.50
23475;DHT22;11910;52.086;21.066;2023-11-22T14:18:57;1.90;91.10
23475;DHT22;11910;52.086;21.066;2023-11-22T14:21:25;1.80;90.40
23475;DHT22;11910;52.086;21.066;2023-11-22T14:23:52;1.60;90.50
23475;DHT22;11910;52.086;21.066;2023-11-22T14:26:18;1.70;89.00
23475;DHT22;11910;52.086;21.066;2023-11-22T14:28:44;1.60;91.30
23475;DHT22;11910;52.086;21.066;2023-11-22T14:31:10;1.60;91.90
23475;DHT22;11910;52.086;21.066;2023-11-22T14:33:35;1.60;92.10
23475;DHT22;11910;52.086;21.066;2023-11-22T14:36:01;1.60;92.00
23475;DHT22;11910;52.086;21.066;2023-11-22T14:38:27;1.50;92.50
23475;DHT22;11910;52.086;21.066;2023-11-22T14:40:53;1.50;92.80
23475;DHT22;11910;52.086;21.066;2023-11-22T14:43:18;1.30;92.60
23475;DHT22;11910;52.086;21.066;2023-11-22T14:45:44;1.10;91.50
23475;DHT22;11910;52.086;21.066;2023-11-22T14:48:11;1.10;92.70
23475;DHT22;11910;52.086;21.066;2023-11-22T14:50:38;1.10;92.90
23475;DHT22;11910;52.086;21.066;2023-11-22T14:53:06;1.20;93.10
23475;DHT22;11910;52.086;21.066;2023-11-22T14:55:33;1.20;92.90
23475;DHT22;11910;52.086;21.066;2023-11-22T14:58:03;1.00;93.10
23475;DHT22;11910;52.086;21.066;2023-11-22T15:00:30;0.90;94.50
23475;DHT22;11910;52.086;21.066;2023-11-22T15:02:56;0.80;94.30
23475;DHT22;11910;52.086;21.066;2023-11-22T15:05:22;0.80;95.20
23475;DHT22;11910;52.086;21.066;2023-11-22T15:07:48;0.70;95.80
23475;DHT22;11910;52.086;21.066;2023-11-22T15:10:20;0.60;96.30
23475;DHT22;11910;52.086;21.066;2023-11-22T15:12:46;0.50;96.30
23475;DHT22;11910;52.086;21.066;2023-11-22T15:15:12;0.40;96.30
23475;DHT22;11910;52.086;21.066;2023-11-22T15:17:38;0.30;96.60
23475;DHT22;11910;52.086;21.066;2023-11-22T15:20:05;0.30;96.70
23475;DHT22;11910;52.086;21.066;2023-11-22T15:22:34;0.40;97.20
23475;DHT22;11910;52.086;21.066;2023-11-22T15:25:00;0.30;97.60
23475;DHT22;11910;52.086;21.066;2023-11-22T15:27:26;0.30;97.70